createdAt,value
2023-02-27T00:00:35.224Z,0.54
2023-02-27T00:01:35.244Z,0.56
2023-02-27T00:02:34.338Z,0.54
2023-02-27T00:03:34.353Z,0.57
2023-02-27T00:04:35.300Z,0.56
2023-02-27T00:05:34.325Z,0.56
2023-02-27T00:06:34.388Z,0.56
2023-02-27T00:07:35.377Z,0.55
2023-02-27T00:08:34.505Z,0.56
2023-02-27T00:09:35.456Z,0.56
2023-02-27T00:10:35.476Z,0.56
2023-02-27T00:11:35.508Z,0.56
2023-02-27T00:12:35.547Z,0.57
2023-02-27T00:13:35.576Z,0.56
2023-02-27T00:14:35.571Z,0.57
2023-02-27T00:15:35.607Z,0.56
2023-02-27T00:16:35.635Z,0.57
2023-02-27T00:17:35.666Z,0.56
2023-02-27T00:18:34.721Z,0.57
2023-02-27T00:19:35.703Z,0.56
2023-02-27T00:20:35.747Z,0.55
2023-02-27T00:21:36.845Z,0.55
2023-02-27T00:22:34.800Z,0.55
2023-02-27T00:23:35.828Z,0.55
2023-02-27T00:24:35.873Z,0.54
2023-02-27T00:25:35.898Z,0.56
2023-02-27T00:26:35.966Z,0.55
2023-02-27T00:27:35.968Z,0.56
2023-02-27T00:28:36.003Z,0.56
2023-02-27T00:29:36.044Z,0.54
2023-02-27T00:30:36.081Z,0.55
2023-02-27T00:31:36.092Z,0.58
2023-02-27T00:32:36.170Z,0.57
2023-02-27T00:33:36.172Z,0.55
2023-02-27T00:34:35.210Z,0.56
2023-02-27T00:35:36.234Z,0.56
2023-02-27T00:36:36.252Z,0.55
2023-02-27T00:37:36.294Z,0.57
2023-02-27T00:38:36.292Z,0.55
2023-02-27T00:39:36.414Z,0.55
2023-02-27T00:40:35.340Z,0.55
2023-02-27T00:41:36.372Z,0.55
2023-02-27T00:42:35.382Z,0.54
2023-02-27T00:43:35.438Z,0.55
2023-02-27T00:44:36.460Z,0.55
2023-02-27T00:45:36.467Z,0.57
2023-02-27T00:46:35.537Z,0.57
2023-02-27T00:47:36.562Z,0.54
2023-02-27T00:48:36.566Z,0.56
2023-02-27T00:49:36.596Z,0.56
2023-02-27T00:50:36.666Z,0.56
2023-02-27T00:51:36.656Z,0.55
2023-02-27T00:52:36.682Z,0.56
2023-02-27T00:53:36.719Z,0.56
2023-02-27T00:54:36.757Z,0.55
2023-02-27T00:55:36.772Z,0.54
2023-02-27T00:56:36.800Z,0.56
2023-02-27T00:57:36.882Z,0.55
2023-02-27T00:58:36.870Z,0.56
2023-02-27T00:59:36.907Z,0.56
2023-02-27T01:00:36.957Z,0.56
2023-02-27T01:01:36.954Z,0.55
2023-02-27T01:02:37.011Z,0.55
2023-02-27T01:03:37.028Z,0.55
2023-02-27T01:04:37.043Z,0.55
2023-02-27T01:05:36.077Z,0.54
2023-02-27T01:06:36.116Z,0.54
2023-02-27T01:07:37.102Z,0.54
2023-02-27T01:08:37.130Z,0.55
2023-02-27T01:09:37.151Z,0.54
2023-02-27T01:10:37.180Z,0.55
2023-02-27T01:11:37.212Z,0.54
2023-02-27T01:12:36.207Z,0.56
2023-02-27T01:13:37.228Z,0.53
2023-02-27T01:14:36.252Z,0.57
2023-02-27T01:15:37.259Z,0.56
2023-02-27T01:16:37.325Z,0.55
2023-02-27T01:17:37.313Z,0.54
2023-02-27T01:18:37.343Z,0.54
2023-02-27T01:19:37.371Z,0.55
2023-02-27T01:20:36.400Z,0.53
2023-02-27T01:21:37.457Z,0.54
2023-02-27T01:22:37.500Z,0.56
2023-02-27T01:23:37.484Z,0.53
2023-02-27T01:24:37.530Z,0.54
2023-02-27T01:25:37.560Z,0.52
2023-02-27T01:26:36.604Z,0.54
2023-02-27T01:27:37.665Z,0.54
2023-02-27T01:28:37.753Z,0.52
2023-02-27T01:29:37.703Z,0.52
2023-02-27T01:30:37.766Z,0.53
2023-02-27T01:31:37.853Z,0.53
2023-02-27T01:32:37.890Z,0.54
2023-02-27T01:33:37.846Z,0.53
2023-02-27T01:34:38.142Z,0.53
2023-02-27T01:35:37.894Z,0.54
2023-02-27T01:36:37.939Z,0.54
2023-02-27T01:37:38.002Z,0.53
2023-02-27T01:38:38.013Z,0.53
2023-02-27T01:39:38.057Z,0.54
2023-02-27T01:40:38.085Z,0.53
2023-02-27T01:41:38.139Z,0.53
2023-02-27T01:42:37.159Z,0.52
2023-02-27T01:43:38.161Z,0.53
2023-02-27T01:44:38.218Z,0.54
2023-02-27T01:45:37.286Z,0.54
2023-02-27T01:46:38.247Z,0.53
2023-02-27T01:47:38.285Z,0.53
2023-02-27T01:48:38.332Z,0.52
2023-02-27T01:49:38.389Z,0.54
2023-02-27T01:50:38.358Z,0.53
2023-02-27T01:51:37.512Z,0.52
2023-02-27T01:52:38.411Z,0.53
2023-02-27T01:53:38.488Z,0.53
2023-02-27T01:54:38.493Z,0.52
2023-02-27T01:55:38.520Z,0.53
2023-02-27T01:56:37.527Z,0.54
2023-02-27T01:57:38.549Z,0.51
2023-02-27T01:58:38.564Z,0.53
2023-02-27T01:59:38.608Z,0.54
2023-02-27T02:00:37.616Z,0.53
2023-02-27T02:01:38.738Z,0.53
2023-02-27T02:02:38.668Z,0.52
2023-02-27T02:03:38.711Z,0.52
2023-02-27T02:04:38.740Z,0.53
2023-02-27T02:05:38.754Z,0.51
2023-02-27T02:06:37.775Z,0.54
2023-02-27T02:07:38.824Z,0.53
2023-02-27T02:08:38.843Z,0.53
2023-02-27T02:09:38.908Z,0.54
2023-02-27T02:10:38.888Z,0.51
2023-02-27T02:11:38.914Z,0.53
2023-02-27T02:12:38.942Z,0.53
2023-02-27T02:13:38.968Z,0.53
2023-02-27T02:14:39.008Z,0.53
2023-02-27T02:15:39.007Z,0.52
2023-02-27T02:16:39.108Z,0.53
2023-02-27T02:17:38.067Z,0.53
2023-02-27T02:18:38.097Z,0.53
2023-02-27T02:19:39.149Z,0.54
2023-02-27T02:20:39.156Z,0.54
2023-02-27T02:21:39.180Z,0.53
2023-02-27T02:22:39.181Z,0.55
2023-02-27T02:23:39.221Z,0.54
2023-02-27T02:24:39.288Z,0.51
2023-02-27T02:25:39.309Z,0.51
2023-02-27T02:26:39.295Z,0.53
2023-02-27T02:27:39.310Z,0.53
2023-02-27T02:28:39.332Z,0.52
2023-02-27T02:29:39.590Z,0.53
2023-02-27T02:30:39.535Z,0.52
2023-02-27T02:31:39.570Z,0.52
2023-02-27T02:32:39.454Z,0.52
2023-02-27T02:33:38.467Z,0.52
2023-02-27T02:34:38.594Z,0.53
2023-02-27T02:35:38.534Z,0.52
2023-02-27T02:36:39.537Z,0.51
2023-02-27T02:37:39.579Z,0.53
2023-02-27T02:38:39.592Z,0.52
2023-02-27T02:39:39.671Z,0.53
2023-02-27T02:40:39.637Z,0.53
2023-02-27T02:41:39.684Z,0.52
2023-02-27T02:42:38.707Z,0.52
2023-02-27T02:43:39.724Z,0.52
2023-02-27T02:44:39.748Z,0.51
2023-02-27T02:45:39.809Z,0.50
2023-02-27T02:46:38.804Z,0.52
2023-02-27T02:47:39.812Z,0.52
2023-02-27T02:48:39.854Z,0.52
2023-02-27T02:49:39.882Z,0.53
2023-02-27T02:50:39.945Z,0.53
2023-02-27T02:51:39.964Z,0.52
2023-02-27T02:52:39.961Z,0.51
2023-02-27T02:53:39.973Z,0.52
2023-02-27T02:54:39.986Z,0.51
2023-02-27T02:55:40.034Z,0.52
2023-02-27T02:56:40.120Z,0.51
2023-02-27T02:57:40.108Z,0.52
2023-02-27T02:58:40.120Z,0.51
2023-02-27T02:59:39.161Z,0.51
2023-02-27T03:00:40.189Z,0.50
2023-02-27T03:01:40.223Z,0.51
2023-02-27T03:02:40.255Z,0.50
2023-02-27T03:03:40.266Z,0.51
2023-02-27T03:04:40.336Z,0.53
2023-02-27T03:05:40.290Z,0.51
2023-02-27T03:06:39.309Z,0.53
2023-02-27T03:07:40.434Z,0.52
2023-02-27T03:08:40.395Z,0.53
2023-02-27T03:09:40.400Z,0.52
2023-02-27T03:10:39.431Z,0.52
2023-02-27T03:11:40.446Z,0.54
2023-02-27T03:12:40.448Z,0.53
2023-02-27T03:13:40.513Z,0.52
2023-02-27T03:14:40.520Z,0.51
2023-02-27T03:15:39.618Z,0.52
2023-02-27T03:16:39.556Z,0.54
2023-02-27T03:17:40.583Z,0.51
2023-02-27T03:18:40.637Z,0.52
2023-02-27T03:19:40.622Z,0.51
2023-02-27T03:20:39.661Z,0.52
2023-02-27T03:21:40.668Z,0.52
2023-02-27T03:22:40.685Z,0.54
2023-02-27T03:23:40.724Z,0.52
2023-02-27T03:24:40.746Z,0.52
2023-02-27T03:25:40.792Z,0.51
2023-02-27T03:26:40.791Z,0.52
2023-02-27T03:27:40.830Z,0.52
2023-02-27T03:28:40.856Z,0.52
2023-02-27T03:29:40.906Z,0.54
2023-02-27T03:30:41.094Z,0.52
2023-02-27T03:31:41.162Z,0.51
2023-02-27T03:32:41.011Z,0.52
2023-02-27T03:33:41.040Z,0.51
2023-02-27T03:34:40.094Z,0.53
2023-02-27T03:35:41.138Z,0.52
2023-02-27T03:36:41.188Z,0.51
2023-02-27T03:37:41.226Z,0.52
2023-02-27T03:38:41.273Z,0.52
2023-02-27T03:39:41.312Z,0.52
2023-02-27T03:40:41.380Z,0.51
2023-02-27T03:41:40.401Z,0.52
2023-02-27T03:42:41.424Z,0.52
2023-02-27T03:43:40.470Z,0.51
2023-02-27T03:44:41.520Z,0.52
2023-02-27T03:45:41.606Z,0.52
2023-02-27T03:46:41.619Z,0.51
2023-02-27T03:47:41.641Z,0.52
2023-02-27T03:48:41.676Z,0.51
2023-02-27T03:49:41.747Z,0.51
2023-02-27T03:50:41.754Z,0.52
2023-02-27T03:51:41.774Z,0.51
2023-02-27T03:52:41.803Z,0.53
2023-02-27T03:53:41.842Z,0.52
2023-02-27T03:54:41.879Z,0.54
2023-02-27T03:55:41.942Z,0.53
2023-02-27T03:56:41.952Z,0.53
2023-02-27T03:57:41.988Z,0.53
2023-02-27T03:58:41.049Z,0.52
2023-02-27T03:59:41.088Z,0.53
2023-02-27T04:00:42.192Z,0.54
2023-02-27T04:01:42.277Z,0.52
2023-02-27T04:02:42.253Z,0.52
2023-02-27T04:03:41.273Z,0.51
2023-02-27T04:04:42.305Z,0.53
2023-02-27T04:05:41.361Z,0.51
2023-02-27T04:06:41.395Z,0.52
2023-02-27T04:07:41.441Z,0.53
2023-02-27T04:08:42.482Z,0.53
2023-02-27T04:09:42.514Z,0.53
2023-02-27T04:10:42.561Z,0.53
2023-02-27T04:11:42.598Z,0.53
2023-02-27T04:12:44.337Z,0.52
2023-02-27T04:13:41.625Z,0.52
2023-02-27T04:14:41.616Z,0.52
2023-02-27T04:15:41.609Z,0.53
2023-02-27T04:16:42.594Z,0.54
2023-02-27T04:17:42.638Z,0.52
2023-02-27T04:18:42.588Z,0.52
2023-02-27T04:19:41.595Z,0.52
2023-02-27T04:20:42.570Z,0.51
2023-02-27T04:21:42.577Z,0.53
2023-02-27T04:22:41.560Z,0.53
2023-02-27T04:23:42.556Z,0.53
2023-02-27T04:24:42.552Z,0.53
2023-02-27T04:25:42.539Z,0.52
2023-02-27T04:26:42.556Z,0.54
2023-02-27T04:27:42.536Z,0.55
2023-02-27T04:28:42.539Z,0.52
2023-02-27T04:29:42.526Z,0.53
2023-02-27T04:30:42.513Z,0.52
2023-02-27T04:31:42.739Z,0.51
2023-02-27T04:32:41.633Z,0.53
2023-02-27T04:33:41.512Z,0.52
2023-02-27T04:34:42.513Z,0.52
2023-02-27T04:35:42.483Z,0.52
2023-02-27T04:36:42.474Z,0.51
2023-02-27T04:37:42.490Z,0.52
2023-02-27T04:38:42.457Z,0.53
2023-02-27T04:39:42.462Z,0.53
2023-02-27T04:40:42.444Z,0.55
2023-02-27T04:41:42.454Z,0.53
2023-02-27T04:42:42.455Z,0.53
2023-02-27T04:43:42.428Z,0.53
2023-02-27T04:44:42.431Z,0.52
2023-02-27T04:45:41.582Z,0.52
2023-02-27T04:46:41.421Z,0.52
2023-02-27T04:47:41.402Z,0.52
2023-02-27T04:48:42.406Z,0.51
2023-02-27T04:49:41.469Z,0.50
2023-02-27T04:50:42.493Z,0.50
2023-02-27T04:51:42.534Z,0.52
2023-02-27T04:52:42.566Z,0.52
2023-02-27T04:53:42.604Z,0.51
2023-02-27T04:54:42.664Z,0.52
2023-02-27T04:55:42.758Z,0.53
2023-02-27T04:56:42.728Z,0.52
2023-02-27T04:57:42.774Z,0.51
2023-02-27T04:58:42.809Z,0.53
2023-02-27T04:59:42.851Z,0.52
2023-02-27T05:00:41.876Z,0.54
2023-02-27T05:01:42.951Z,0.53
2023-02-27T05:02:43.074Z,0.53
2023-02-27T05:03:42.016Z,0.51
2023-02-27T05:04:42.042Z,0.53
2023-02-27T05:05:43.106Z,0.52
2023-02-27T05:06:43.132Z,0.53
2023-02-27T05:07:42.180Z,0.52
2023-02-27T05:08:43.205Z,0.53
2023-02-27T05:09:43.254Z,0.52
2023-02-27T05:10:43.305Z,0.54
2023-02-27T05:11:43.333Z,0.52
2023-02-27T05:12:43.372Z,0.52
2023-02-27T05:13:43.418Z,0.54
2023-02-27T05:14:43.458Z,0.52
2023-02-27T05:15:43.516Z,0.52
2023-02-27T05:16:43.561Z,0.53
2023-02-27T05:17:43.642Z,0.53
2023-02-27T05:18:43.608Z,0.54
2023-02-27T05:19:43.663Z,0.52
2023-02-27T05:20:42.700Z,0.52
2023-02-27T05:21:43.772Z,0.53
2023-02-27T05:22:43.794Z,0.53
2023-02-27T05:23:43.826Z,0.52
2023-02-27T05:24:43.862Z,0.52
2023-02-27T05:25:43.898Z,0.52
2023-02-27T05:26:43.923Z,0.53
2023-02-27T05:27:42.962Z,0.54
2023-02-27T05:28:45.052Z,0.51
2023-02-27T05:29:44.027Z,0.52
2023-02-27T05:30:44.058Z,0.52
2023-02-27T05:31:44.213Z,0.53
2023-02-27T05:32:44.148Z,0.53
2023-02-27T05:33:43.201Z,0.52
2023-02-27T05:34:43.245Z,0.53
2023-02-27T05:35:44.330Z,0.55
2023-02-27T05:36:44.342Z,0.54
2023-02-27T05:37:44.456Z,0.53
2023-02-27T05:38:43.437Z,0.53
2023-02-27T05:39:44.482Z,0.53
2023-02-27T05:40:44.510Z,0.52
2023-02-27T05:41:44.576Z,0.53
2023-02-27T05:42:44.608Z,0.52
2023-02-27T05:43:43.660Z,0.52
2023-02-27T05:44:44.690Z,0.53
2023-02-27T05:45:44.921Z,0.51
2023-02-27T05:46:44.794Z,0.52
2023-02-27T05:47:44.839Z,0.51
2023-02-27T05:48:44.876Z,0.51
2023-02-27T05:49:44.904Z,0.52
2023-02-27T05:50:44.962Z,0.53
2023-02-27T05:51:45.003Z,0.51
2023-02-27T05:52:45.054Z,0.51
2023-02-27T05:53:45.113Z,0.52
2023-02-27T05:54:45.137Z,0.52
2023-02-27T05:55:45.196Z,0.51
2023-02-27T05:56:45.241Z,0.50
2023-02-27T05:57:45.275Z,0.53
2023-02-27T05:58:45.334Z,0.51
2023-02-27T05:59:45.354Z,0.50
2023-02-27T06:00:45.412Z,0.51
2023-02-27T06:01:46.293Z,0.52
2023-02-27T06:02:45.480Z,0.51
2023-02-27T06:03:45.628Z,0.52
2023-02-27T06:04:45.584Z,0.52
2023-02-27T06:05:44.689Z,0.53
2023-02-27T06:06:45.687Z,0.51
2023-02-27T06:07:45.699Z,0.53
2023-02-27T06:08:45.758Z,0.50
2023-02-27T06:09:45.824Z,0.52
2023-02-27T06:10:45.839Z,0.54
2023-02-27T06:11:45.874Z,0.51
2023-02-27T06:12:45.923Z,0.52
2023-02-27T06:13:45.976Z,0.52
2023-02-27T06:14:44.994Z,0.52
2023-02-27T06:15:46.037Z,0.52
2023-02-27T06:16:46.201Z,0.50
2023-02-27T06:17:46.099Z,0.52
2023-02-27T06:18:46.161Z,0.52
2023-02-27T06:19:46.196Z,0.51
2023-02-27T06:20:46.232Z,0.52
2023-02-27T06:21:46.297Z,0.52
2023-02-27T06:22:45.311Z,0.52
2023-02-27T06:23:46.356Z,0.51
2023-02-27T06:24:46.413Z,0.51
2023-02-27T06:25:46.490Z,0.53
2023-02-27T06:26:45.493Z,0.53
2023-02-27T06:27:46.555Z,0.51
2023-02-27T06:28:46.617Z,0.53
2023-02-27T06:29:45.650Z,0.53
2023-02-27T06:30:46.807Z,0.54
2023-02-27T06:31:46.789Z,0.54
2023-02-27T06:32:46.786Z,0.54
2023-02-27T06:33:45.856Z,0.54
2023-02-27T06:34:46.891Z,0.55
2023-02-27T06:35:46.953Z,0.55
2023-02-27T06:36:46.966Z,0.56
2023-02-27T06:37:47.010Z,0.55
2023-02-27T06:38:47.051Z,0.58
2023-02-27T06:39:47.081Z,0.58
2023-02-27T06:40:47.106Z,0.57
2023-02-27T06:41:47.169Z,0.57
2023-02-27T06:42:47.168Z,0.58
2023-02-27T06:43:46.192Z,0.63
2023-02-27T06:44:46.216Z,0.63
2023-02-27T06:45:47.252Z,0.66
2023-02-27T06:46:46.257Z,0.64
2023-02-27T06:47:47.296Z,0.63
2023-02-27T06:48:46.316Z,0.68
2023-02-27T06:49:46.324Z,0.68
2023-02-27T06:50:47.340Z,0.67
2023-02-27T06:51:47.316Z,0.71
2023-02-27T06:52:46.347Z,0.74
2023-02-27T06:53:47.342Z,0.78
2023-02-27T06:54:46.337Z,0.75
2023-02-27T06:55:46.382Z,0.75
2023-02-27T06:56:47.367Z,0.63
2023-02-27T06:57:47.418Z,0.63
2023-02-27T06:58:47.449Z,0.64
2023-02-27T06:59:47.480Z,0.69
2023-02-27T07:00:47.549Z,0.68
2023-02-27T07:01:48.249Z,0.62
2023-02-27T07:02:48.184Z,0.75
2023-02-27T07:03:46.941Z,0.87
2023-02-27T07:04:48.023Z,0.94
2023-02-27T07:05:46.835Z,0.95
2023-02-27T07:07:35.893Z,1.04
2023-02-27T07:07:47.875Z,1.04
2023-02-27T07:09:01.798Z,1.05
2023-02-27T07:09:47.999Z,1.04
2023-02-27T07:10:47.867Z,1.06
2023-02-27T07:11:47.842Z,1.12
2023-02-27T07:12:47.104Z,1.18
2023-02-27T07:13:47.841Z,1.25
2023-02-27T07:14:47.821Z,1.29
2023-02-27T07:15:46.929Z,1.36
2023-02-27T07:16:47.868Z,1.31
2023-02-27T07:17:47.799Z,1.47
2023-02-27T07:18:47.851Z,1.52
2023-02-27T07:19:47.790Z,1.40
2023-02-27T07:20:47.784Z,1.50
2023-02-27T07:21:47.767Z,1.50
2023-02-27T07:22:47.988Z,1.49
2023-02-27T07:23:46.831Z,1.51
2023-02-27T07:24:46.762Z,1.56
2023-02-27T07:25:47.858Z,1.60
2023-02-27T07:26:47.736Z,1.58
2023-02-27T07:27:47.748Z,1.64
2023-02-27T07:28:47.785Z,1.66
2023-02-27T07:29:47.733Z,1.60
2023-02-27T07:30:47.823Z,1.58
2023-02-27T07:31:47.712Z,1.60
2023-02-27T07:32:47.705Z,1.66
2023-02-27T07:33:47.702Z,1.68
2023-02-27T07:34:47.693Z,1.77
2023-02-27T07:35:47.747Z,1.69
2023-02-27T07:36:47.756Z,1.79
2023-02-27T07:37:46.671Z,1.77
2023-02-27T07:38:46.697Z,1.86
2023-02-27T07:39:47.656Z,1.95
2023-02-27T07:40:47.662Z,1.86
2023-02-27T07:41:47.633Z,1.70
2023-02-27T07:42:46.626Z,1.82
2023-02-27T07:43:47.624Z,1.87
2023-02-27T07:44:46.723Z,1.94
2023-02-27T07:45:46.678Z,1.95
2023-02-27T07:46:47.721Z,1.99
2023-02-27T07:47:46.624Z,2.05
2023-02-27T07:48:47.603Z,2.15
2023-02-27T07:49:47.590Z,2.12
2023-02-27T07:50:47.582Z,2.27
2023-02-27T07:51:46.574Z,2.16
2023-02-27T07:52:47.690Z,2.10
2023-02-27T07:53:47.715Z,2.15
2023-02-27T07:54:47.759Z,2.06
2023-02-27T07:55:47.838Z,2.04
2023-02-27T07:56:47.879Z,2.11
2023-02-27T07:57:48.405Z,2.22
2023-02-27T07:58:46.996Z,2.15
2023-02-27T07:59:47.213Z,2.23
2023-02-27T08:00:47.115Z,2.31
2023-02-27T08:01:48.125Z,2.33
2023-02-27T08:02:48.380Z,2.52
2023-02-27T08:03:48.402Z,2.61
2023-02-27T08:04:48.340Z,2.47
2023-02-27T08:05:48.350Z,2.48
2023-02-27T08:06:48.451Z,2.54
2023-02-27T08:07:48.445Z,2.57
2023-02-27T08:08:48.491Z,2.58
2023-02-27T08:09:47.527Z,2.54
2023-02-27T08:10:48.588Z,2.59
2023-02-27T08:11:49.344Z,2.51
2023-02-27T08:12:49.794Z,2.60
2023-02-27T08:14:00.197Z,2.67
2023-02-27T08:14:48.785Z,2.67
2023-02-27T08:15:47.699Z,2.68
2023-02-27T08:16:48.698Z,2.64
2023-02-27T08:17:48.762Z,2.60
2023-02-27T08:18:48.684Z,2.54
2023-02-27T08:19:48.661Z,2.72
2023-02-27T08:20:48.660Z,2.41
2023-02-27T08:21:48.654Z,2.61
2023-02-27T08:22:48.771Z,2.61
2023-02-27T08:23:48.633Z,2.45
2023-02-27T08:24:48.745Z,2.58
2023-02-27T08:25:48.621Z,2.56
2023-02-27T08:26:47.869Z,2.67
2023-02-27T08:27:47.610Z,2.52
2023-02-27T08:28:48.584Z,2.54
2023-02-27T08:29:48.623Z,2.58
2023-02-27T08:30:48.791Z,2.67
2023-02-27T08:31:48.831Z,2.57
2023-02-27T08:32:48.589Z,2.66
2023-02-27T08:33:55.307Z,2.57
2023-02-27T08:34:48.561Z,2.58
2023-02-27T08:35:48.612Z,2.50
2023-02-27T08:36:48.559Z,2.45
2023-02-27T08:37:48.546Z,2.67
2023-02-27T08:38:48.626Z,2.73
2023-02-27T08:39:48.670Z,2.73
2023-02-27T08:40:48.535Z,2.78
2023-02-27T08:41:47.526Z,2.78
2023-02-27T08:42:48.623Z,2.78
2023-02-27T08:43:48.692Z,2.81
2023-02-27T08:44:48.560Z,2.67
2023-02-27T08:45:48.506Z,2.72
2023-02-27T08:46:48.490Z,2.66
2023-02-27T08:47:48.699Z,2.77
2023-02-27T08:48:48.491Z,2.78
2023-02-27T08:49:48.512Z,3.63
2023-02-27T08:50:48.464Z,3.44
2023-02-27T08:51:48.484Z,3.49
2023-02-27T08:52:48.690Z,3.57
2023-02-27T08:53:48.465Z,3.59
2023-02-27T08:54:48.439Z,3.62
2023-02-27T08:55:48.460Z,3.92
2023-02-27T08:56:47.517Z,3.85
2023-02-27T08:57:48.459Z,3.85
2023-02-27T08:58:48.632Z,3.90
2023-02-27T08:59:48.727Z,3.87
2023-02-27T09:00:48.498Z,3.87
2023-02-27T09:01:48.565Z,3.81
2023-02-27T09:02:47.544Z,3.77
2023-02-27T09:03:48.654Z,3.82
2023-02-27T09:04:48.396Z,3.76
2023-02-27T09:05:48.383Z,3.91
2023-02-27T09:06:48.397Z,3.81
2023-02-27T09:07:48.402Z,3.79
2023-02-27T09:08:47.762Z,3.74
2023-02-27T09:09:50.019Z,3.77
2023-02-27T09:10:48.353Z,3.73
2023-02-27T09:11:48.346Z,3.76
2023-02-27T09:12:48.333Z,3.63
2023-02-27T09:13:48.303Z,3.52
2023-02-27T09:14:48.347Z,3.57
2023-02-27T09:15:48.307Z,3.68
2023-02-27T09:16:48.355Z,3.57
2023-02-27T09:17:48.357Z,3.55
2023-02-27T09:18:47.345Z,3.44
2023-02-27T09:19:47.300Z,3.42
2023-02-27T09:20:48.277Z,3.31
2023-02-27T09:21:48.611Z,3.25
2023-02-27T09:22:47.292Z,3.42
2023-02-27T09:23:48.253Z,3.33
2023-02-27T09:24:48.230Z,3.15
2023-02-27T09:25:48.260Z,3.15
2023-02-27T09:26:49.711Z,3.20
2023-02-27T09:27:48.410Z,3.46
2023-02-27T09:28:48.441Z,3.32
2023-02-27T09:29:48.438Z,3.20
2023-02-27T09:30:48.467Z,3.24
2023-02-27T09:31:48.680Z,3.16
2023-02-27T09:32:48.536Z,3.10
2023-02-27T09:33:48.515Z,3.24
2023-02-27T09:34:48.528Z,3.06
2023-02-27T09:35:47.577Z,3.13
2023-02-27T09:36:48.700Z,3.09
2023-02-27T09:37:48.615Z,2.93
2023-02-27T09:38:48.579Z,3.00
2023-02-27T09:39:48.620Z,2.84
2023-02-27T09:40:48.631Z,2.90
2023-02-27T09:41:47.656Z,2.87
2023-02-27T09:42:48.884Z,2.99
2023-02-27T09:43:48.720Z,3.12
2023-02-27T09:44:48.739Z,3.06
2023-02-27T09:45:48.783Z,3.22
2023-02-27T09:46:48.789Z,3.22
2023-02-27T09:47:48.823Z,3.14
2023-02-27T09:48:48.899Z,3.59
2023-02-27T09:49:48.834Z,4.58
2023-02-27T09:50:48.936Z,3.93
2023-02-27T09:51:48.973Z,3.89
2023-02-27T09:52:48.922Z,3.82
2023-02-27T09:53:48.955Z,3.57
2023-02-27T09:54:48.949Z,3.30
2023-02-27T09:55:48.959Z,3.45
2023-02-27T09:56:47.983Z,3.51
2023-02-27T09:57:49.239Z,3.48
2023-02-27T09:58:49.045Z,3.37
2023-02-27T09:59:48.057Z,3.29
2023-02-27T10:00:48.090Z,3.25
2023-02-27T10:01:48.139Z,3.17
2023-02-27T10:02:48.716Z,3.12
2023-02-27T10:03:48.212Z,3.01
2023-02-27T10:04:49.261Z,2.95
2023-02-27T10:05:48.310Z,2.87
2023-02-27T10:06:48.419Z,2.91
2023-02-27T10:07:50.463Z,2.88
2023-02-27T10:08:48.491Z,2.80
2023-02-27T10:09:49.545Z,2.73
2023-02-27T10:10:49.560Z,2.66
2023-02-27T10:11:48.628Z,2.55
2023-02-27T10:12:49.675Z,2.55
2023-02-27T10:13:49.737Z,2.58
2023-02-27T10:14:49.795Z,2.50
2023-02-27T10:15:48.850Z,2.47
2023-02-27T10:16:50.018Z,2.42
2023-02-27T10:17:49.978Z,2.31
2023-02-27T10:18:50.049Z,2.30
2023-02-27T10:19:50.079Z,2.30
2023-02-27T10:20:50.148Z,2.27
2023-02-27T10:21:50.265Z,2.22
2023-02-27T10:22:49.264Z,2.15
2023-02-27T10:23:50.299Z,2.06
2023-02-27T10:24:50.343Z,2.12
2023-02-27T10:25:50.424Z,2.08
2023-02-27T10:26:50.457Z,2.02
2023-02-27T10:27:49.434Z,1.95
2023-02-27T10:28:49.484Z,2.06
2023-02-27T10:29:50.521Z,1.90
2023-02-27T10:30:50.569Z,1.80
2023-02-27T10:31:50.586Z,1.77
2023-02-27T10:32:50.551Z,1.81
2023-02-27T10:33:50.564Z,1.82
2023-02-27T10:34:50.588Z,1.82
2023-02-27T10:35:50.654Z,1.76
2023-02-27T10:36:50.618Z,1.73
2023-02-27T10:37:49.631Z,1.68
2023-02-27T10:38:50.609Z,1.67
2023-02-27T10:39:50.613Z,1.68
2023-02-27T10:40:50.593Z,1.64
2023-02-27T10:41:50.611Z,1.57
2023-02-27T10:42:50.579Z,1.60
2023-02-27T10:43:50.592Z,1.62
2023-02-27T10:44:50.569Z,1.57
2023-02-27T10:45:49.640Z,1.53
2023-02-27T10:46:51.874Z,1.54
2023-02-27T10:47:49.678Z,1.52
2023-02-27T10:48:51.352Z,1.47
2023-02-27T10:49:50.574Z,1.38
2023-02-27T10:50:50.615Z,1.42
2023-02-27T10:51:51.187Z,1.46
2023-02-27T10:52:50.746Z,1.57
2023-02-27T10:53:51.124Z,1.60
2023-02-27T10:54:50.926Z,1.65
2023-02-27T10:55:50.732Z,1.71
2023-02-27T10:56:50.808Z,1.65
2023-02-27T10:57:50.752Z,1.78
2023-02-27T10:58:51.008Z,3.67
2023-02-27T10:59:50.811Z,6.35
2023-02-27T11:00:50.749Z,3.94
2023-02-27T11:01:50.783Z,4.05
2023-02-27T11:02:50.782Z,3.08
2023-02-27T11:03:50.808Z,2.35
2023-02-27T11:04:50.878Z,2.19
2023-02-27T11:05:50.926Z,1.73
2023-02-27T11:06:50.964Z,1.77
2023-02-27T11:07:50.097Z,1.75
2023-02-27T11:08:50.368Z,1.78
2023-02-27T11:09:50.273Z,1.79
2023-02-27T11:10:51.192Z,1.89
2023-02-27T11:11:51.396Z,1.82
2023-02-27T11:12:50.364Z,1.84
2023-02-27T11:13:51.429Z,1.73
2023-02-27T11:14:51.440Z,1.70
2023-02-27T11:15:51.548Z,1.63
2023-02-27T11:16:52.276Z,1.63
2023-02-27T11:17:51.600Z,1.65
2023-02-27T11:18:51.705Z,1.51
2023-02-27T11:19:51.818Z,1.60
2023-02-27T11:20:52.048Z,1.39
2023-02-27T11:21:51.813Z,1.44
2023-02-27T11:22:51.938Z,1.40
2023-02-27T11:23:51.945Z,1.40
2023-02-27T11:24:52.001Z,1.48
2023-02-27T11:25:51.058Z,1.45
2023-02-27T11:26:52.120Z,1.42
2023-02-27T11:27:52.328Z,1.39
2023-02-27T11:28:52.218Z,1.34
2023-02-27T11:29:52.321Z,1.20
2023-02-27T11:30:52.396Z,1.21
2023-02-27T11:31:51.454Z,1.17
2023-02-27T11:32:52.459Z,1.21
2023-02-27T11:33:51.525Z,1.30
2023-02-27T11:34:51.558Z,1.25
2023-02-27T11:35:58.236Z,1.21
2023-02-27T11:36:52.644Z,1.21
2023-02-27T11:37:52.629Z,1.23
2023-02-27T11:38:51.605Z,1.24
2023-02-27T11:39:52.600Z,1.27
2023-02-27T11:40:51.596Z,1.28
2023-02-27T11:41:51.577Z,1.38
2023-02-27T11:42:52.585Z,1.42
2023-02-27T11:43:52.762Z,1.37
2023-02-27T11:44:52.564Z,1.37
2023-02-27T11:46:04.732Z,1.37
2023-02-27T11:46:52.586Z,1.37
2023-02-27T11:47:51.530Z,1.37
2023-02-27T11:48:52.789Z,1.36
2023-02-27T11:49:52.503Z,1.34
2023-02-27T11:50:51.501Z,1.33
2023-02-27T11:51:51.501Z,1.31
2023-02-27T11:52:52.488Z,1.28
2023-02-27T11:53:52.510Z,1.26
2023-02-27T11:54:52.465Z,1.20
2023-02-27T11:55:52.477Z,1.19
2023-02-27T11:56:51.485Z,1.18
2023-02-27T11:57:52.475Z,1.20
2023-02-27T11:58:52.444Z,1.19
2023-02-27T11:59:52.442Z,1.18
2023-02-27T12:00:52.437Z,1.13
2023-02-27T12:01:52.456Z,1.08
2023-02-27T12:02:52.491Z,1.11
2023-02-27T12:03:52.471Z,1.09
2023-02-27T12:04:52.450Z,1.08
2023-02-27T12:05:52.412Z,1.05
2023-02-27T12:06:52.397Z,1.07
2023-02-27T12:07:54.275Z,1.05
2023-02-27T12:08:52.399Z,1.04
2023-02-27T12:09:52.380Z,1.06
2023-02-27T12:10:54.137Z,1.04
2023-02-27T12:11:52.379Z,1.04
2023-02-27T12:12:52.366Z,1.01
2023-02-27T12:13:52.362Z,1.03
2023-02-27T12:14:51.486Z,1.01
2023-02-27T12:15:51.390Z,0.99
2023-02-27T12:16:52.341Z,0.99
2023-02-27T12:17:52.338Z,1.01
2023-02-27T12:18:52.329Z,1.01
2023-02-27T12:20:51.317Z,0.93
2023-02-27T12:21:51.300Z,0.94
2023-02-27T12:22:52.308Z,0.92
2023-02-27T12:23:52.317Z,0.91
2023-02-27T12:24:52.309Z,0.88
2023-02-27T12:25:52.269Z,0.88
2023-02-27T12:26:52.269Z,0.88
2023-02-27T12:27:52.268Z,0.86
2023-02-27T12:28:51.254Z,0.91
2023-02-27T12:29:52.248Z,0.89
2023-02-27T12:30:51.230Z,0.89
2023-02-27T12:31:52.308Z,0.85
2023-02-27T12:32:52.222Z,0.83
2023-02-27T12:33:52.246Z,0.83
2023-02-27T12:34:51.214Z,0.80
2023-02-27T12:35:52.228Z,0.80
2023-02-27T12:36:52.260Z,0.82
2023-02-27T12:37:52.202Z,0.80
2023-02-27T12:38:52.181Z,0.81
2023-02-27T12:39:52.174Z,0.79
2023-02-27T12:40:52.183Z,0.81
2023-02-27T12:41:52.155Z,0.79
2023-02-27T12:42:52.143Z,0.78
2023-02-27T12:43:52.140Z,0.77
2023-02-27T12:44:52.149Z,0.80
2023-02-27T12:45:52.176Z,0.78
2023-02-27T12:46:51.136Z,0.76
2023-02-27T12:47:52.126Z,0.76
2023-02-27T12:48:51.118Z,0.75
2023-02-27T12:49:51.134Z,0.75
2023-02-27T12:50:52.096Z,0.76
2023-02-27T12:51:51.097Z,0.76
2023-02-27T12:52:52.098Z,0.77
2023-02-27T12:53:52.085Z,0.76
2023-02-27T12:54:51.062Z,0.76
2023-02-27T12:55:52.074Z,0.73
2023-02-27T12:56:51.048Z,0.75
2023-02-27T12:57:52.047Z,0.75
2023-02-27T12:58:52.048Z,0.74
2023-02-27T12:59:52.078Z,0.73
2023-02-27T13:00:52.112Z,0.72
2023-02-27T13:01:52.045Z,0.72
2023-02-27T13:02:52.030Z,0.75
2023-02-27T13:03:52.130Z,0.74
2023-02-27T13:04:52.023Z,0.72
2023-02-27T13:05:52.057Z,0.71
2023-02-27T13:06:51.997Z,0.70
2023-02-27T13:07:51.982Z,0.70
2023-02-27T13:08:51.984Z,0.69
2023-02-27T13:09:52.001Z,0.70
2023-02-27T13:10:51.980Z,0.68
2023-02-27T13:11:51.972Z,0.70
2023-02-27T13:12:51.958Z,0.68
2023-02-27T13:13:51.946Z,0.68
2023-02-27T13:14:50.963Z,0.66
2023-02-27T13:15:50.932Z,0.68
2023-02-27T13:16:51.964Z,0.66
2023-02-27T13:17:51.926Z,0.65
2023-02-27T13:18:51.922Z,0.64
2023-02-27T13:19:51.910Z,0.63